Time;durP1;ratioP1;P1;durP2;ratioP2;P2;SDS_P1;SDS_P2;PMS_P1;PMS_P2;Temp;Humidity;BMP_temperature;BMP_pressure;BME280_temperature;BME280_humidity;BME280_pressure;Samples;Min_cycle;Max_cycle;Signal;HPM_P1;HPM_P2
2022/06/30 00:01:31;;;;;;;12.75;11.55;;;;;;;;;;5028173;28;20087;-69
2022/06/30 00:03:56;;;;;;;12.95;11.57;;;;;;;;;;5030065;28;20034;-69
2022/06/30 00:06:22;;;;;;;12.45;11.30;;;;;;;;;;5030207;28;20049;-69
2022/06/30 00:08:48;;;;;;;13.20;11.93;;;;;;;;;;5030348;28;20045;-69
2022/06/30 00:11:13;;;;;;;13.63;12.15;;;;;;;;;;5028456;28;20048;-69
2022/06/30 00:13:41;;;;;;;13.82;12.52;;;;;;;;;;5029860;28;20072;-69
2022/06/30 00:16:07;;;;;;;13.98;12.52;;;;;;;;;;5030133;28;20046;-69
2022/06/30 00:18:34;;;;;;;15.52;12.30;;;;;;;;;;5028979;28;20116;-69
2022/06/30 00:21:00;;;;;;;14.70;12.18;;;;;;;;;;5029717;28;20125;-69
2022/06/30 00:23:25;;;;;;;13.90;11.95;;;;;;;;;;5029607;28;20470;-69
2022/06/30 00:25:52;;;;;;;14.57;12.38;;;;;;;;;;5030205;28;20048;-69
2022/06/30 00:28:20;;;;;;;13.40;12.00;;;;;;;;;;5027768;28;20043;-69
2022/06/30 00:30:51;;;;;;;12.52;11.43;;;;;;;;;;5028520;28;20037;-69
2022/06/30 00:33:18;;;;;;;14.20;12.75;;;;;;;;;;5029505;28;20488;-69
2022/06/30 00:35:45;;;;;;;13.57;12.27;;;;;;;;;;5029852;28;20040;-69
2022/06/30 00:38:11;;;;;;;13.27;12.02;;;;;;;;;;5027163;28;20033;-69
2022/06/30 00:40:42;;;;;;;12.65;11.50;;;;;;;;;;5027436;28;20034;-69
2022/06/30 00:43:08;;;;;;;14.00;12.80;;;;;;;;;;5028944;28;20126;-69
2022/06/30 00:45:43;;;;;;;15.32;12.27;;;;;;;;;;5027127;28;20041;-69
2022/06/30 00:48:10;;;;;;;15.57;12.30;;;;;;;;;;5029281;28;20407;-69
2022/06/30 00:50:35;;;;;;;13.70;12.38;;;;;;;;;;5029295;28;20053;-69
2022/06/30 00:53:04;;;;;;;14.93;12.75;;;;;;;;;;5027119;28;20029;-69
2022/06/30 00:55:30;;;;;;;17.80;13.40;;;;;;;;;;5027524;28;20033;-69
2022/06/30 00:57:59;;;;;;;14.13;12.73;;;;;;;;;;5029123;28;20033;-69
2022/06/30 01:00:26;;;;;;;;;;;;;;;;;;5029482;28;20385;-69
2022/06/30 01:02:53;;;;;;;14.15;12.73;;;;;;;;;;5027079;28;19920;-69
2022/06/30 01:05:20;;;;;;;14.15;12.63;;;;;;;;;;5029039;28;20124;-69
2022/06/30 01:07:47;;;;;;;15.52;13.98;;;;;;;;;;5029665;28;20041;-69
2022/06/30 01:12:57;;;;;;;14.43;13.13;;;;;;;;;;5026847;28;20037;-69
2022/06/30 01:15:22;;;;;;;15.50;14.05;;;;;;;;;;5029345;28;20040;-69
2022/06/30 01:17:50;;;;;;;15.38;13.75;;;;;;;;;;5028885;28;20029;-69
2022/06/30 01:20:18;;;;;;;15.25;13.57;;;;;;;;;;5026706;28;20068;-69
2022/06/30 01:22:44;;;;;;;15.85;14.27;;;;;;;;;;5025216;28;20033;-69
2022/06/30 01:25:11;;;;;;;17.58;13.73;;;;;;;;;;5029060;28;20104;-69
2022/06/30 01:27:36;;;;;;;16.42;13.38;;;;;;;;;;5029054;28;20082;-69
2022/06/30 01:30:03;;;;;;;15.63;13.32;;;;;;;;;;5027115;28;20451;-69
2022/06/30 01:32:29;;;;;;;13.93;12.73;;;;;;;;;;5028558;28;20048;-69
2022/06/30 01:34:56;;;;;;;14.38;12.95;;;;;;;;;;5028135;28;20064;-69
2022/06/30 01:37:23;;;;;;;14.70;12.98;;;;;;;;;;5027239;28;20471;-69
2022/06/30 01:39:49;;;;;;;14.35;12.43;;;;;;;;;;5028707;28;20039;-69
2022/06/30 01:42:15;;;;;;;15.55;13.15;;;;;;;;;;5027076;28;20260;-69
2022/06/30 01:44:41;;;;;;;14.77;13.40;;;;;;;;;;5027663;28;20513;-69
2022/06/30 01:47:08;;;;;;;13.98;12.70;;;;;;;;;;5027167;28;20041;-69
2022/06/30 01:49:34;;;;;;;15.13;13.73;;;;;;;;;;5028086;28;20036;-69
2022/06/30 01:51:59;;;;;;;14.82;13.43;;;;;;;;;;5028032;28;20025;-69
2022/06/30 01:54:25;;;;;;;17.30;14.20;;;;;;;;;;5025785;28;20488;-69
2022/06/30 01:56:50;;;;;;;15.15;13.55;;;;;;;;;;5028433;28;20063;-69
2022/06/30 01:59:16;;;;;;;15.52;14.00;;;;;;;;;;5027814;28;20044;-69
2022/06/30 02:01:42;;;;;;;18.20;13.90;;;;;;;;;;5020310;28;20041;-69
2022/06/30 02:06:52;;;;;;;14.75;13.27;;;;;;;;;;5027442;28;20040;-69
2022/06/30 02:09:18;;;;;;;15.43;14.02;;;;;;;;;;5027509;28;20096;-69
2022/06/30 02:11:44;;;;;;;16.00;14.23;;;;;;;;;;5025703;28;20044;-69
2022/06/30 02:14:10;;;;;;;17.23;15.40;;;;;;;;;;5027042;28;20041;-69
2022/06/30 02:16:36;;;;;;;17.00;15.32;;;;;;;;;;5028070;28;20554;-69
2022/06/30 02:19:02;;;;;;;17.75;15.85;;;;;;;;;;5027720;28;20029;-69
2022/06/30 02:21:27;;;;;;;17.48;15.73;;;;;;;;;;5025261;28;20212;-69
2022/06/30 02:23:53;;;;;;;17.98;14.93;;;;;;;;;;5024174;28;20078;-69
2022/06/30 02:26:19;;;;;;;17.30;15.50;;;;;;;;;;5026851;28;20176;-69
2022/06/30 02:28:44;;;;;;;17.50;15.68;;;;;;;;;;5027338;28;20431;-69
2022/06/30 02:31:12;;;;;;;17.45;15.65;;;;;;;;;;5025458;28;20370;-69
2022/06/30 02:33:39;;;;;;;17.27;15.57;;;;;;;;;;5027334;28;20026;-69
2022/06/30 02:36:06;;;;;;;19.38;15.13;;;;;;;;;;5027329;28;20090;-69
2022/06/30 02:38:31;;;;;;;17.10;15.35;;;;;;;;;;5027441;28;20034;-69
2022/06/30 02:40:57;;;;;;;18.38;15.25;;;;;;;;;;5023762;28;20508;-69
2022/06/30 02:43:23;;;;;;;18.52;15.68;;;;;;;;;;5026735;28;20045;-69
2022/06/30 02:45:48;;;;;;;16.92;15.23;;;;;;;;;;5027992;28;20029;-69
2022/06/30 02:48:15;;;;;;;16.90;15.15;;;;;;;;;;5027430;28;20503;-69
2022/06/30 02:50:41;;;;;;;16.40;14.82;;;;;;;;;;5024849;28;20037;-69
2022/06/30 02:53:06;;;;;;;16.58;14.75;;;;;;;;;;5027372;28;20046;-69
2022/06/30 02:55:32;;;;;;;18.75;15.57;;;;;;;;;;5027017;28;20060;-69
2022/06/30 02:57:57;;;;;;;19.10;15.88;;;;;;;;;;5025378;28;20104;-69
2022/06/30 03:00:23;;;;;;;18.15;16.30;;;;;;;;;;5017020;28;20044;-69
2022/06/30 03:02:49;;;;;;;17.55;15.32;;;;;;;;;;5026093;28;20112;-69
2022/06/30 03:05:15;;;;;;;17.05;15.45;;;;;;;;;;5024712;28;20116;-69
2022/06/30 03:07:40;;;;;;;17.85;15.23;;;;;;;;;;5030498;28;20381;-69
2022/06/30 03:10:06;;;;;;;17.92;15.07;;;;;;;;;;5026105;28;20119;-68
2022/06/30 03:12:32;;;;;;;18.90;14.80;;;;;;;;;;5030712;28;20040;-68
2022/06/30 03:14:58;;;;;;;18.17;14.30;;;;;;;;;;5029797;28;20041;-68
2022/06/30 03:17:24;;;;;;;20.38;15.18;;;;;;;;;;5025833;28;20038;-68
2022/06/30 03:19:50;;;;;;;16.70;14.95;;;;;;;;;;5028827;28;20252;-68
2022/06/30 03:22:15;;;;;;;20.60;15.20;;;;;;;;;;5030157;28;20041;-68
2022/06/30 03:24:41;;;;;;;16.25;14.57;;;;;;;;;;5028487;28;20496;-68
2022/06/30 03:27:06;;;;;;;15.82;14.10;;;;;;;;;;5026474;28;20045;-68
2022/06/30 03:29:32;;;;;;;15.93;14.40;;;;;;;;;;5027832;28;20037;-68
2022/06/30 03:31:57;;;;;;;16.13;14.43;;;;;;;;;;5030917;28;20048;-68
2022/06/30 03:34:23;;;;;;;15.93;14.25;;;;;;;;;;5027356;28;20611;-68
2022/06/30 03:36:49;;;;;;;16.02;14.32;;;;;;;;;;5032955;28;20040;-68
2022/06/30 03:39:14;;;;;;;14.68;13.32;;;;;;;;;;5036004;28;20109;-69
2022/06/30 03:41:40;;;;;;;18.17;14.55;;;;;;;;;;5030827;28;20407;-69
2022/06/30 03:44:06;;;;;;;15.63;14.02;;;;;;;;;;5031857;28;20045;-68
2022/06/30 03:46:31;;;;;;;16.50;14.82;;;;;;;;;;5033944;28;20037;-69
2022/06/30 03:48:57;;;;;;;17.60;15.30;;;;;;;;;;5034644;28;20132;-68
2022/06/30 03:51:22;;;;;;;18.58;16.55;;;;;;;;;;5030459;28;20404;-68
2022/06/30 03:53:48;;;;;;;22.38;16.83;;;;;;;;;;5033543;28;20102;-68
2022/06/30 03:56:14;;;;;;;18.88;15.98;;;;;;;;;;5035399;28;20044;-68
2022/06/30 03:58:40;;;;;;;18.67;16.83;;;;;;;;;;5036011;28;20032;-69
2022/06/30 04:01:05;;;;;;;18.00;16.33;;;;;;;;;;5029213;28;20044;-69
2022/06/30 04:03:31;;;;;;;18.08;16.00;;;;;;;;;;5023687;28;20025;-68
2022/06/30 04:05:56;;;;;;;21.92;16.98;;;;;;;;;;5029821;28;20119;-69
2022/06/30 04:08:22;;;;;;;19.30;16.98;;;;;;;;;;5029935;28;20266;-68
2022/06/30 04:10:48;;;;;;;17.08;15.25;;;;;;;;;;5030147;28;20397;-68
2022/06/30 04:13:14;;;;;;;18.08;15.95;;;;;;;;;;5029764;28;20114;-69
2022/06/30 04:15:39;;;;;;;15.77;14.27;;;;;;;;;;5029712;28;20029;-68
2022/06/30 04:18:05;;;;;;;15.38;13.77;;;;;;;;;;5029151;28;20029;-68
2022/06/30 04:20:31;;;;;;;18.35;12.85;;;;;;;;;;5029933;28;20385;-69
2022/06/30 04:22:56;;;;;;;13.77;12.38;;;;;;;;;;5030292;28;20036;-69
2022/06/30 04:25:22;;;;;;;20.92;12.70;;;;;;;;;;5029708;28;20033;-69
2022/06/30 04:27:52;;;;;;;12.90;11.57;;;;;;;;;;5030196;28;20017;-68
2022/06/30 04:33:04;;;;;;;15.48;11.60;;;;;;;;;;5029234;28;20686;-68
2022/06/30 04:35:30;;;;;;;12.65;11.48;;;;;;;;;;5029987;28;20039;-68
2022/06/30 04:37:59;;;;;;;12.43;11.18;;;;;;;;;;5027932;28;20293;-68
2022/06/30 04:43:10;;;;;;;13.80;11.27;;;;;;;;;;5028722;28;20073;-69
2022/06/30 04:45:35;;;;;;;11.43;10.35;;;;;;;;;;5028528;28;20504;-68
2022/06/30 04:48:02;;;;;;;10.98;10.10;;;;;;;;;;5026651;28;20116;-68
2022/06/30 04:50:28;;;;;;;12.15;10.65;;;;;;;;;;5029576;28;20056;-68
2022/06/30 04:52:54;;;;;;;13.68;10.60;;;;;;;;;;5029066;28;20029;-69
2022/06/30 04:55:19;;;;;;;13.02;10.48;;;;;;;;;;5027919;28;20044;-69
2022/06/30 04:57:45;;;;;;;12.10;10.95;;;;;;;;;;5029322;28;20037;-68
2022/06/30 05:00:11;;;;;;;11.68;10.45;;;;;;;;;;5022724;28;20044;-67
2022/06/30 05:02:37;;;;;;;12.10;11.00;;;;;;;;;;5027879;28;20044;-67
2022/06/30 05:05:03;;;;;;;16.98;11.13;;;;;;;;;;5025687;28;20058;-69
2022/06/30 05:07:28;;;;;;;11.77;10.65;;;;;;;;;;5026614;28;20029;-68
2022/06/30 05:09:54;;;;;;;11.15;10.32;;;;;;;;;;5024584;28;20037;-69
2022/06/30 05:12:19;;;;;;;14.07;9.93;;;;;;;;;;5025994;28;20029;-69
2022/06/30 05:14:45;;;;;;;10.90;9.63;;;;;;;;;;5030320;28;20068;-69
2022/06/30 05:17:11;;;;;;;12.52;9.90;;;;;;;;;;5028886;28;20496;-69
2022/06/30 05:19:37;;;;;;;10.70;9.82;;;;;;;;;;5026842;28;20505;-67
2022/06/30 05:22:03;;;;;;;11.20;10.05;;;;;;;;;;5029395;28;20064;-69
2022/06/30 05:27:13;;;;;;;10.18;9.20;;;;;;;;;;5027181;28;20052;-69
2022/06/30 05:29:39;;;;;;;9.82;8.85;;;;;;;;;;5029904;28;20052;-68
2022/06/30 05:32:05;;;;;;;10.32;8.75;;;;;;;;;;5028569;28;20025;-69
2022/06/30 05:34:31;;;;;;;9.20;8.50;;;;;;;;;;5026067;28;20052;-68
2022/06/30 05:36:56;;;;;;;9.55;8.60;;;;;;;;;;5026804;28;20091;-68
2022/06/30 05:39:22;;;;;;;10.30;9.15;;;;;;;;;;5028351;28;20079;-69
2022/06/30 05:41:47;;;;;;;9.95;8.70;;;;;;;;;;5028278;28;20460;-69
2022/06/30 05:44:13;;;;;;;11.18;9.00;;;;;;;;;;5026663;28;20400;-68
2022/06/30 05:46:39;;;;;;;9.85;8.85;;;;;;;;;;5028796;28;20033;-68
2022/06/30 05:49:06;;;;;;;9.85;8.80;;;;;;;;;;5028873;28;20516;-69
2022/06/30 05:51:32;;;;;;;10.27;9.13;;;;;;;;;;5026891;28;20364;-68
2022/06/30 05:53:58;;;;;;;8.93;8.13;;;;;;;;;;5027714;28;20493;-68
2022/06/30 05:56:23;;;;;;;9.95;8.95;;;;;;;;;;5028100;28;20120;-68
2022/06/30 05:58:49;;;;;;;9.60;8.70;;;;;;;;;;5028720;28;20404;-68
2022/06/30 06:01:15;;;;;;;9.82;8.82;;;;;;;;;;5025860;28;20084;-68
2022/06/30 06:03:40;;;;;;;11.25;9.13;;;;;;;;;;5027993;28;20038;-68
2022/06/30 06:06:06;;;;;;;9.73;8.93;;;;;;;;;;5026477;28;20053;-68
2022/06/30 06:08:31;;;;;;;10.05;8.85;;;;;;;;;;5028024;28;20036;-68
2022/06/30 06:10:57;;;;;;;9.73;8.77;;;;;;;;;;5025946;28;20205;-68
2022/06/30 06:13:22;;;;;;;9.40;8.32;;;;;;;;;;5027714;28;20385;-68
2022/06/30 06:15:48;;;;;;;10.20;8.73;;;;;;;;;;5027792;28;20088;-68
2022/06/30 06:18:15;;;;;;;10.60;8.43;;;;;;;;;;5027770;28;20029;-68
2022/06/30 06:20:42;;;;;;;8.55;7.85;;;;;;;;;;5027537;28;20030;-68
2022/06/30 06:23:08;;;;;;;10.43;8.38;;;;;;;;;;5028313;28;20129;-68
2022/06/30 06:25:34;;;;;;;9.70;8.80;;;;;;;;;;5027460;28;20548;-68
2022/06/30 06:30:43;;;;;;;9.35;8.32;;;;;;;;;;5027682;28;20519;-68
2022/06/30 06:33:08;;;;;;;9.13;8.25;;;;;;;;;;5027512;28;20033;-68
2022/06/30 06:35:34;;;;;;;9.27;8.25;;;;;;;;;;5027657;28;20082;-68
2022/06/30 06:38:01;;;;;;;9.25;8.52;;;;;;;;;;5026513;28;20245;-68
2022/06/30 06:40:27;;;;;;;14.60;8.48;;;;;;;;;;5027772;28;20034;-68
2022/06/30 06:42:53;;;;;;;11.82;8.35;;;;;;;;;;5027678;28;20033;-68
2022/06/30 06:45:19;;;;;;;11.35;8.38;;;;;;;;;;5025702;28;20033;-68
2022/06/30 06:47:45;;;;;;;9.63;8.65;;;;;;;;;;5027629;28;20037;-68
2022/06/30 06:50:10;;;;;;;10.20;8.15;;;;;;;;;;5027663;28;20508;-68
2022/06/30 06:52:37;;;;;;;9.13;8.00;;;;;;;;;;5027272;28;20029;-68
2022/06/30 06:55:03;;;;;;;8.75;7.85;;;;;;;;;;5024877;28;20528;-68
2022/06/30 06:57:36;;;;;;;9.05;8.23;;;;;;;;;;5025051;28;20034;-68
2022/06/30 07:00:07;;;;;;;9.95;8.07;;;;;;;;;;5026907;28;20029;-68
2022/06/30 07:02:33;;;;;;;10.00;7.45;;;;;;;;;;5027565;28;20400;-68
2022/06/30 07:04:59;;;;;;;8.73;7.50;;;;;;;;;;5025866;28;20030;-68
2022/06/30 07:07:24;;;;;;;8.77;7.88;;;;;;;;;;5024648;28;20124;-68
2022/06/30 07:09:50;;;;;;;10.68;7.45;;;;;;;;;;5029234;28;20539;-68
2022/06/30 07:12:16;;;;;;;13.60;7.68;;;;;;;;;;5031426;28;20496;-68
2022/06/30 07:14:41;;;;;;;9.38;7.85;;;;;;;;;;5030996;28;20030;-68
2022/06/30 07:17:07;;;;;;;10.20;7.85;;;;;;;;;;5027755;28;20127;-69
2022/06/30 07:19:33;;;;;;;8.82;7.45;;;;;;;;;;5030995;28;20527;-68
2022/06/30 07:21:58;;;;;;;8.85;7.13;;;;;;;;;;5030789;28;20041;-68
2022/06/30 07:24:24;;;;;;;9.93;7.57;;;;;;;;;;5030632;28;20030;-69
2022/06/30 07:26:49;;;;;;;10.48;7.53;;;;;;;;;;5029053;28;20033;-69
2022/06/30 07:29:16;;;;;;;8.15;7.38;;;;;;;;;;5031179;28;20125;-69
2022/06/30 07:31:42;;;;;;;10.07;7.60;;;;;;;;;;5029446;28;20378;-69
2022/06/30 07:34:08;;;;;;;11.77;7.88;;;;;;;;;;5030552;28;20045;-69
2022/06/30 07:36:35;;;;;;;9.65;7.47;;;;;;;;;;5028601;28;20041;-69
2022/06/30 07:39:01;;;;;;;10.02;7.25;;;;;;;;;;5030897;28;20027;-68
2022/06/30 07:41:28;;;;;;;7.88;7.18;;;;;;;;;;5031735;28;20041;-68
2022/06/30 07:43:54;;;;;;;9.63;7.05;;;;;;;;;;5027979;28;20033;-69
2022/06/30 07:46:20;;;;;;;8.00;7.30;;;;;;;;;;5028377;28;20045;-68
2022/06/30 07:48:47;;;;;;;7.65;6.47;;;;;;;;;;5030329;28;20104;-68
2022/06/30 07:51:15;;;;;;;8.05;7.18;;;;;;;;;;5030486;28;20110;-68
2022/06/30 07:53:40;;;;;;;7.95;7.00;;;;;;;;;;5029123;28;20104;-68
2022/06/30 07:56:06;;;;;;;7.85;7.00;;;;;;;;;;5030254;28;20133;-68
2022/06/30 07:58:33;;;;;;;7.97;6.63;;;;;;;;;;5030581;28;20570;-68
2022/06/30 08:00:59;;;;;;;7.35;6.70;;;;;;;;;;5030150;28;20048;-68
2022/06/30 08:03:25;;;;;;;9.45;7.10;;;;;;;;;;5027829;28;20472;-69
2022/06/30 08:05:51;;;;;;;8.07;6.80;;;;;;;;;;5030853;28;20124;-68
2022/06/30 08:08:17;;;;;;;7.68;6.28;;;;;;;;;;5030684;28;20291;-68
2022/06/30 08:10:42;;;;;;;7.53;6.63;;;;;;;;;;5028644;28;20436;-68
2022/06/30 08:13:09;;;;;;;8.02;6.45;;;;;;;;;;5029845;28;20488;-68
2022/06/30 08:15:35;;;;;;;9.45;7.25;;;;;;;;;;5030752;28;20432;-68
2022/06/30 08:18:03;;;;;;;7.35;6.57;;;;;;;;;;5029795;28;20045;-68
2022/06/30 08:20:29;;;;;;;7.60;6.93;;;;;;;;;;5028173;28;20542;-68
2022/06/30 08:22:54;;;;;;;11.35;6.78;;;;;;;;;;5027794;28;20045;-68
2022/06/30 08:25:20;;;;;;;11.32;7.43;;;;;;;;;;5029947;28;20033;-68
2022/06/30 08:27:46;;;;;;;8.00;7.28;;;;;;;;;;5029877;28;20037;-68
2022/06/30 08:30:11;;;;;;;7.38;6.30;;;;;;;;;;5028040;28;20039;-68
2022/06/30 08:32:37;;;;;;;10.80;6.72;;;;;;;;;;5029944;28;20111;-68
2022/06/30 08:35:03;;;;;;;7.15;6.43;;;;;;;;;;5029457;28;20032;-68
2022/06/30 08:37:28;;;;;;;7.28;6.35;;;;;;;;;;5028011;28;20318;-68
2022/06/30 08:42:41;;;;;;;7.03;6.43;;;;;;;;;;5028906;28;20045;-68
2022/06/30 08:45:13;;;;;;;6.70;6.00;;;;;;;;;;5029025;28;20132;-68
2022/06/30 08:47:40;;;;;;;7.30;6.40;;;;;;;;;;5028614;28;20056;-68
2022/06/30 08:50:08;;;;;;;8.40;6.60;;;;;;;;;;5028929;28;20114;-68
2022/06/30 08:52:38;;;;;;;;;;;;;;;;;;5030187;28;20099;-68
2022/06/30 08:55:06;;;;;;;8.20;6.55;;;;;;;;;;5023723;28;19952;-68
2022/06/30 08:57:32;;;;;;;8.38;6.00;;;;;;;;;;5029221;28;20060;-68
2022/06/30 08:59:58;;;;;;;8.45;5.63;;;;;;;;;;5029251;28;20067;-68
2022/06/30 09:02:24;;;;;;;11.07;6.13;;;;;;;;;;5028897;28;20041;-68
2022/06/30 09:04:49;;;;;;;6.15;5.45;;;;;;;;;;5026452;28;20065;-68
2022/06/30 09:07:15;;;;;;;7.30;5.57;;;;;;;;;;5029021;28;20037;-68
2022/06/30 09:09:40;;;;;;;7.10;5.38;;;;;;;;;;5028905;28;20501;-68
2022/06/30 09:12:17;;;;;;;8.68;6.05;;;;;;;;;;5026562;28;20436;-68
2022/06/30 09:14:46;;;;;;;7.00;5.95;;;;;;;;;;5028469;28;20041;-68
2022/06/30 09:17:13;;;;;;;11.18;5.90;;;;;;;;;;5028899;28;20159;-68
2022/06/30 09:19:52;;;;;;;7.38;5.40;;;;;;;;;;5028752;28;20033;-68
2022/06/30 09:22:18;;;;;;;6.50;5.07;;;;;;;;;;5026969;28;20515;-68
2022/06/30 09:24:44;;;;;;;6.72;5.10;;;;;;;;;;5028550;28;20037;-68
2022/06/30 09:27:10;;;;;;;7.95;5.50;;;;;;;;;;5026563;28;20300;-68
2022/06/30 09:29:52;;;;;;;5.50;4.90;;;;;;;;;;5028632;28;20072;-68
2022/06/30 09:32:18;;;;;;;6.70;5.00;;;;;;;;;;5028311;28;20045;-68
2022/06/30 09:34:44;;;;;;;6.63;4.72;;;;;;;;;;5024314;28;20029;-69
2022/06/30 09:37:21;;;;;;;7.13;5.03;;;;;;;;;;5026984;28;20038;-68
2022/06/30 09:39:48;;;;;;;5.57;5.07;;;;;;;;;;5025238;28;20117;-69
2022/06/30 09:42:14;;;;;;;8.30;5.40;;;;;;;;;;5028135;28;20029;-69
2022/06/30 09:44:46;;;;;;;6.55;5.15;;;;;;;;;;5026620;28;20061;-68
2022/06/30 09:47:12;;;;;;;7.13;5.35;;;;;;;;;;5026749;28;20088;-68
2022/06/30 09:49:46;;;;;;;5.45;4.60;;;;;;;;;;5021823;28;20021;-68
2022/06/30 09:52:20;;;;;;;5.65;5.03;;;;;;;;;;5026177;28;20041;-68
2022/06/30 09:54:59;;;;;;;7.00;5.57;;;;;;;;;;5025202;28;20040;-69
2022/06/30 09:57:52;;;;;;;10.55;5.35;;;;;;;;;;5027796;28;20120;-68
2022/06/30 10:00:18;;;;;;;6.78;5.00;;;;;;;;;;5026042;28;20045;-68
2022/06/30 10:02:49;;;;;;;5.68;5.00;;;;;;;;;;5026051;28;20039;-68
2022/06/30 10:05:17;;;;;;;5.30;4.78;;;;;;;;;;5025996;28;20152;-68
2022/06/30 10:07:44;;;;;;;7.03;5.30;;;;;;;;;;5028129;28;20064;-68
2022/06/30 10:10:12;;;;;;;7.57;5.40;;;;;;;;;;5025615;28;20037;-68
2022/06/30 10:12:40;;;;;;;5.90;5.25;;;;;;;;;;5028101;28;20104;-68
2022/06/30 10:15:08;;;;;;;5.68;5.15;;;;;;;;;;5027478;28;20417;-68
2022/06/30 10:17:45;;;;;;;5.95;5.45;;;;;;;;;;5024540;28;20037;-68
2022/06/30 10:20:11;;;;;;;7.40;5.25;;;;;;;;;;5027879;28;20042;-68
2022/06/30 10:22:39;;;;;;;6.38;5.13;;;;;;;;;;5025124;28;20054;-68
2022/06/30 10:25:06;;;;;;;6.90;5.18;;;;;;;;;;5025891;28;20030;-68
2022/06/30 10:27:31;;;;;;;5.90;5.18;;;;;;;;;;5026817;28;20520;-68
2022/06/30 10:30:13;;;;;;;5.57;5.00;;;;;;;;;;5026252;28;20115;-68
2022/06/30 10:33:06;;;;;;;6.35;5.25;;;;;;;;;;5026991;28;20041;-68
2022/06/30 10:35:41;;;;;;;5.50;5.00;;;;;;;;;;5025131;28;20038;-68
2022/06/30 10:38:25;;;;;;;8.10;5.38;;;;;;;;;;5027193;28;20076;-68
2022/06/30 10:41:03;;;;;;;5.80;5.30;;;;;;;;;;5027435;28;20125;-68
2022/06/30 10:43:29;;;;;;;;;;;;;;;;;;5024306;28;20039;-68
2022/06/30 10:45:54;;;;;;;6.30;5.10;;;;;;;;;;5026008;28;20291;-68
2022/06/30 10:48:21;;;;;;;8.55;4.93;;;;;;;;;;5027412;28;20041;-69
2022/06/30 10:50:47;;;;;;;7.10;5.00;;;;;;;;;;5025766;28;20037;-68
2022/06/30 10:53:34;;;;;;;5.90;5.30;;;;;;;;;;5025102;28;20033;-68
2022/06/30 10:56:00;;;;;;;5.28;4.88;;;;;;;;;;5027063;28;20054;-69
2022/06/30 10:58:25;;;;;;;6.82;5.63;;;;;;;;;;5027490;28;20039;-68
2022/06/30 11:01:00;;;;;;;9.68;5.55;;;;;;;;;;5025511;28;20040;-68
2022/06/30 11:03:34;;;;;;;8.57;5.60;;;;;;;;;;5026880;28;20026;-68
2022/06/30 11:06:01;;;;;;;5.68;5.18;;;;;;;;;;5025512;28;20080;-68
2022/06/30 11:08:39;;;;;;;8.13;5.90;;;;;;;;;;5027286;28;20029;-68
2022/06/30 11:11:20;;;;;;;7.95;5.70;;;;;;;;;;5024140;28;20100;-68
2022/06/30 11:13:46;;;;;;;6.75;5.40;;;;;;;;;;5026981;28;20281;-68
2022/06/30 11:16:19;;;;;;;7.05;5.50;;;;;;;;;;5027165;28;20091;-68
2022/06/30 11:18:46;;;;;;;5.20;4.80;;;;;;;;;;5027265;28;20045;-68
2022/06/30 11:21:12;;;;;;;9.05;5.85;;;;;;;;;;5024990;28;20048;-69
2022/06/30 11:23:49;;;;;;;7.32;5.63;;;;;;;;;;5026865;28;20469;-68
2022/06/30 11:29:03;;;;;;;6.07;5.53;;;;;;;;;;5026380;28;20036;-68
2022/06/30 11:31:37;;;;;;;6.70;5.50;;;;;;;;;;5025332;28;20072;-68
2022/06/30 11:34:14;;;;;;;6.82;5.75;;;;;;;;;;5024846;28;20449;-69
2022/06/30 11:36:41;;;;;;;7.30;5.78;;;;;;;;;;5028716;28;20079;-68
2022/06/30 11:39:18;;;;;;;7.87;6.10;;;;;;;;;;5026451;28;20044;-69
2022/06/30 11:41:58;;;;;;;6.18;5.57;;;;;;;;;;5026021;28;20026;-68
2022/06/30 11:44:37;;;;;;;9.45;5.82;;;;;;;;;;5025259;28;20584;-69
2022/06/30 11:47:13;;;;;;;6.53;6.03;;;;;;;;;;5026991;28;20109;-68
2022/06/30 11:49:50;;;;;;;6.78;5.97;;;;;;;;;;5024680;28;20459;-68
2022/06/30 11:52:18;;;;;;;7.30;5.95;;;;;;;;;;5025435;28;20042;-69
2022/06/30 11:54:48;;;;;;;8.27;6.57;;;;;;;;;;5026618;28;20033;-68
2022/06/30 11:57:15;;;;;;;6.28;5.82;;;;;;;;;;5029446;28;20095;-69
2022/06/30 11:59:44;;;;;;;7.57;6.38;;;;;;;;;;5029399;28;20045;-69
2022/06/30 12:02:10;;;;;;;6.10;5.65;;;;;;;;;;5030402;28;20419;-69
2022/06/30 12:04:41;;;;;;;7.03;5.72;;;;;;;;;;5030366;28;20464;-69
2022/06/30 12:07:08;;;;;;;9.02;5.97;;;;;;;;;;5030088;28;20037;-69
2022/06/30 12:09:35;;;;;;;7.60;6.20;;;;;;;;;;5029423;28;20112;-69
2022/06/30 12:12:03;;;;;;;7.00;6.30;;;;;;;;;;5030443;28;20030;-68
2022/06/30 12:14:34;;;;;;;6.63;6.10;;;;;;;;;;5029723;28;20044;-70
2022/06/30 12:16:59;;;;;;;6.53;6.03;;;;;;;;;;5027704;28;20083;-68
2022/06/30 12:19:25;;;;;;;7.78;6.50;;;;;;;;;;5030168;28;20053;-68
2022/06/30 12:21:53;;;;;;;8.75;6.43;;;;;;;;;;5030211;28;20025;-69
2022/06/30 12:24:21;;;;;;;6.80;6.20;;;;;;;;;;5029900;28;20124;-69
2022/06/30 12:26:55;;;;;;;7.45;6.75;;;;;;;;;;5028862;28;20500;-69
2022/06/30 12:29:23;;;;;;;7.03;6.18;;;;;;;;;;5028725;28;20115;-69
2022/06/30 12:32:21;;;;;;;7.60;6.82;;;;;;;;;;5029881;28;20021;-69
2022/06/30 12:34:55;;;;;;;7.07;6.53;;;;;;;;;;4967279;28;20062;-69
2022/06/30 12:37:36;;;;;;;7.05;6.45;;;;;;;;;;4968433;28;20047;-68
2022/06/30 12:40:08;;;;;;;7.93;6.82;;;;;;;;;;4968471;28;20030;-68
2022/06/30 12:42:39;;;;;;;6.97;6.32;;;;;;;;;;4967889;28;20038;-69
2022/06/30 12:45:05;;;;;;;10.65;6.50;;;;;;;;;;4966592;28;20054;-68
2022/06/30 12:47:31;;;;;;;7.05;6.35;;;;;;;;;;4968292;28;20050;-68
2022/06/30 12:49:56;;;;;;;9.25;6.82;;;;;;;;;;4968290;28;20039;-69
2022/06/30 12:52:22;;;;;;;8.55;6.75;;;;;;;;;;4968104;28;20047;-68
2022/06/30 12:54:54;;;;;;;7.68;6.97;;;;;;;;;;4966961;28;20494;-68
2022/06/30 12:57:20;;;;;;;7.60;6.90;;;;;;;;;;4967921;28;20073;-69
2022/06/30 12:59:50;;;;;;;7.10;6.53;;;;;;;;;;4967297;28;20041;-68
2022/06/30 13:02:16;;;;;;;7.75;6.57;;;;;;;;;;4951331;28;20193;-69
2022/06/30 13:04:52;;;;;;;7.43;6.63;;;;;;;;;;4967791;28;20046;-68
2022/06/30 13:07:19;;;;;;;9.27;7.00;;;;;;;;;;4965867;28;20061;-68
2022/06/30 13:09:47;;;;;;;8.73;6.25;;;;;;;;;;4977837;28;20049;-68
2022/06/30 13:12:13;;;;;;;11.07;6.50;;;;;;;;;;5026524;28;20045;-68
2022/06/30 13:14:39;;;;;;;7.45;6.68;;;;;;;;;;5027098;28;20080;-68
2022/06/30 13:17:05;;;;;;;7.72;6.25;;;;;;;;;;5025057;28;20045;-68
2022/06/30 13:19:32;;;;;;;7.05;6.07;;;;;;;;;;5027039;28;20034;-68
2022/06/30 13:21:58;;;;;;;7.55;6.25;;;;;;;;;;5027288;28;20025;-68
2022/06/30 13:24:24;;;;;;;8.93;6.05;;;;;;;;;;5026727;28;20074;-68
2022/06/30 13:26:50;;;;;;;7.80;6.43;;;;;;;;;;5024948;28;20065;-68
2022/06/30 13:29:16;;;;;;;7.93;6.78;;;;;;;;;;5027053;28;20048;-68
2022/06/30 13:31:43;;;;;;;7.53;6.85;;;;;;;;;;5025991;28;20033;-68
2022/06/30 13:34:11;;;;;;;7.88;6.60;;;;;;;;;;5026778;28;20049;-68
2022/06/30 13:36:39;;;;;;;7.57;6.47;;;;;;;;;;5024423;28;20037;-68
2022/06/30 13:39:06;;;;;;;7.47;6.88;;;;;;;;;;5027347;28;20535;-68
2022/06/30 13:41:32;;;;;;;7.53;6.50;;;;;;;;;;5026518;28;20543;-68
2022/06/30 13:44:02;;;;;;;7.90;6.57;;;;;;;;;;5025730;28;20045;-68
2022/06/30 13:46:30;;;;;;;7.10;6.60;;;;;;;;;;5027413;28;20044;-67
2022/06/30 13:48:56;;;;;;;8.33;6.70;;;;;;;;;;5027010;28;20432;-68
2022/06/30 13:51:21;;;;;;;7.00;6.40;;;;;;;;;;5026699;28;20047;-68
2022/06/30 13:53:47;;;;;;;8.10;6.50;;;;;;;;;;5024932;28;20052;-68
2022/06/30 13:56:13;;;;;;;7.72;6.93;;;;;;;;;;5026916;28;20041;-68
2022/06/30 13:58:39;;;;;;;7.40;6.70;;;;;;;;;;5026606;28;20447;-68
2022/06/30 14:01:06;;;;;;;7.85;6.55;;;;;;;;;;5026616;28;20120;-68
2022/06/30 14:03:33;;;;;;;7.35;6.65;;;;;;;;;;5024114;28;20079;-68
2022/06/30 14:06:00;;;;;;;7.07;6.53;;;;;;;;;;5026705;28;20052;-68
2022/06/30 14:08:26;;;;;;;7.38;6.68;;;;;;;;;;5026245;28;20029;-68
2022/06/30 14:10:54;;;;;;;7.70;7.00;;;;;;;;;;5024499;28;20426;-68
2022/06/30 14:13:19;;;;;;;7.15;6.47;;;;;;;;;;5025858;28;20111;-68
2022/06/30 14:15:45;;;;;;;7.05;6.47;;;;;;;;;;5026241;28;20053;-68
2022/06/30 14:18:11;;;;;;;8.50;6.43;;;;;;;;;;5026225;28;20084;-68
2022/06/30 14:20:37;;;;;;;8.57;6.57;;;;;;;;;;5023804;28;20564;-68
2022/06/30 14:23:03;;;;;;;7.65;6.80;;;;;;;;;;5025878;28;20148;-68
2022/06/30 14:25:28;;;;;;;6.78;6.20;;;;;;;;;;5026184;28;20083;-68
2022/06/30 14:27:54;;;;;;;8.60;7.18;;;;;;;;;;5024047;28;20041;-68
2022/06/30 14:30:21;;;;;;;7.30;6.60;;;;;;;;;;5026056;28;20037;-67
2022/06/30 14:32:48;;;;;;;8.43;6.72;;;;;;;;;;5026065;28;20065;-67
2022/06/30 14:35:13;;;;;;;7.32;6.63;;;;;;;;;;5025985;28;20041;-68
2022/06/30 14:37:40;;;;;;;7.78;6.43;;;;;;;;;;5024742;28;20404;-68
2022/06/30 14:40:10;;;;;;;7.45;6.68;;;;;;;;;;5026389;28;20044;-67
2022/06/30 14:42:43;;;;;;;7.85;7.03;;;;;;;;;;5026665;28;20069;-67
2022/06/30 14:45:11;;;;;;;6.97;6.28;;;;;;;;;;5023139;28;20493;-68
2022/06/30 14:47:38;;;;;;;11.70;6.60;;;;;;;;;;5023393;28;20051;-67
2022/06/30 14:50:05;;;;;;;7.78;6.90;;;;;;;;;;5023722;28;20105;-67
2022/06/30 14:52:31;;;;;;;7.18;6.43;;;;;;;;;;5025995;28;20055;-68
2022/06/30 14:54:57;;;;;;;8.02;7.00;;;;;;;;;;5027075;28;20043;-68
2022/06/30 14:57:22;;;;;;;7.45;6.72;;;;;;;;;;5025943;28;20559;-68